createdAt,value
2022-09-01T00:01:18.345Z,55.75
2022-09-01T00:03:45.265Z,54.69
2022-09-01T00:06:12.117Z,55.16
2022-09-01T00:08:39.039Z,55.28
2022-09-01T00:11:05.904Z,55.51
2022-09-01T00:13:32.771Z,56.19
2022-09-01T00:16:02.876Z,56.77
2022-09-01T00:18:30.612Z,55.53
2022-09-01T00:20:57.467Z,55.96
2022-09-01T00:23:24.297Z,56.08
2022-09-01T00:25:51.169Z,56.39
2022-09-01T00:28:18.123Z,56.21
2022-09-01T00:30:45.400Z,56.89
2022-09-01T00:33:12.263Z,56.50
2022-09-01T00:35:41.597Z,56.74
2022-09-01T00:38:08.513Z,57.41
2022-09-01T00:40:35.634Z,57.43
2022-09-01T00:43:12.288Z,57.67
2022-09-01T00:45:39.358Z,58.15
2022-09-01T00:48:06.216Z,57.28
2022-09-01T00:50:33.685Z,57.98
2022-09-01T00:53:00.632Z,57.33
2022-09-01T00:55:30.678Z,57.22
2022-09-01T00:58:01.579Z,57.10
2022-09-01T01:00:31.297Z,57.69
2022-09-01T01:02:58.658Z,58.04
2022-09-01T01:05:31.936Z,58.23
2022-09-01T01:08:00.843Z,59.05
2022-09-01T01:10:31.868Z,58.59
2022-09-01T01:13:00.130Z,59.00
2022-09-01T01:15:27.155Z,57.58
2022-09-01T01:17:54.048Z,57.63
2022-09-01T01:20:25.575Z,57.64
2022-09-01T01:22:58.228Z,57.92
2022-09-01T01:25:25.664Z,58.39
2022-09-01T01:27:52.811Z,57.25
2022-09-01T01:30:20.389Z,57.70
2022-09-01T01:32:47.698Z,57.79
2022-09-01T01:35:17.212Z,57.27
2022-09-01T01:37:46.183Z,58.01
2022-09-01T01:40:15.367Z,57.98
2022-09-01T01:42:47.534Z,58.02
2022-09-01T01:45:20.679Z,57.74
2022-09-01T01:47:49.874Z,57.63
2022-09-01T01:50:16.815Z,57.55
2022-09-01T01:52:45.442Z,57.94
2022-09-01T01:55:12.539Z,58.30
2022-09-01T01:57:40.724Z,58.08
2022-09-01T02:00:08.757Z,58.02
2022-09-01T02:02:36.462Z,58.08
2022-09-01T02:05:03.489Z,57.75
2022-09-01T02:07:30.334Z,57.55
2022-09-01T02:10:00.796Z,57.57
2022-09-01T02:12:27.689Z,58.08
2022-09-01T02:14:54.592Z,58.28
2022-09-01T02:17:22.521Z,58.42
2022-09-01T02:19:49.360Z,58.39
2022-09-01T02:22:16.245Z,58.46
2022-09-01T02:24:43.158Z,58.40
2022-09-01T02:27:09.977Z,58.58
2022-09-01T02:29:40.113Z,58.51
2022-09-01T02:32:10.216Z,58.72
2022-09-01T02:34:37.119Z,58.34
2022-09-01T02:37:04.045Z,58.73
2022-09-01T02:39:32.417Z,58.70
2022-09-01T02:41:59.353Z,58.75
2022-09-01T02:44:26.300Z,58.75
2022-09-01T02:46:53.179Z,58.50
2022-09-01T02:49:23.865Z,59.13
2022-09-01T02:51:52.389Z,58.96
2022-09-01T02:54:19.296Z,59.12
2022-09-01T02:56:46.713Z,59.32
2022-09-01T02:59:14.583Z,59.50
2022-09-01T03:01:42.142Z,59.50
2022-09-01T03:04:11.273Z,59.88
2022-09-01T03:06:39.282Z,59.90
2022-09-01T03:09:12.908Z,59.07
2022-09-01T03:11:42.009Z,59.79
2022-09-01T03:14:09.720Z,59.94
2022-09-01T03:16:37.718Z,60.05
2022-09-01T03:19:06.074Z,60.38
2022-09-01T03:21:33.036Z,60.34
2022-09-01T03:24:00.234Z,60.60
2022-09-01T03:26:27.137Z,60.74
2022-09-01T03:28:53.971Z,60.08
2022-09-01T03:31:21.517Z,60.20
2022-09-01T03:33:48.447Z,60.20
2022-09-01T03:36:15.571Z,60.69
2022-09-01T03:38:43.109Z,60.71
2022-09-01T03:41:09.946Z,61.03
2022-09-01T03:43:36.801Z,60.65
2022-09-01T03:46:13.036Z,60.19
2022-09-01T03:48:39.859Z,59.63
2022-09-01T03:51:06.692Z,59.19
2022-09-01T03:53:37.453Z,58.92
2022-09-01T03:56:05.224Z,58.85
2022-09-01T03:58:32.562Z,58.32
2022-09-01T04:01:00.425Z,58.09
2022-09-01T04:03:31.018Z,55.72
2022-09-01T04:05:59.631Z,54.11
2022-09-01T04:08:27.378Z,53.23
2022-09-01T04:11:10.240Z,53.07
2022-09-01T04:13:40.643Z,52.54
2022-09-01T04:16:16.668Z,51.63
2022-09-01T04:18:43.588Z,49.70
2022-09-01T04:21:10.437Z,49.16
2022-09-01T04:23:37.306Z,49.02
2022-09-01T04:26:10.527Z,48.56
2022-09-01T04:28:45.856Z,48.09
2022-09-01T04:31:18.474Z,47.89
2022-09-01T04:33:47.365Z,47.67
2022-09-01T04:36:21.913Z,47.67
2022-09-01T04:39:29.303Z,47.54
2022-09-01T04:41:56.173Z,46.39
2022-09-01T04:44:22.974Z,46.21
2022-09-01T04:46:49.827Z,45.61
2022-09-01T04:49:19.449Z,45.62
2022-09-01T04:51:53.341Z,45.89
2022-09-01T04:54:22.291Z,45.33
2022-09-01T04:56:50.997Z,45.60
2022-09-01T04:59:20.172Z,45.09
2022-09-01T05:01:48.823Z,45.12
2022-09-01T05:04:20.024Z,44.39
2022-09-01T05:06:50.460Z,43.72
2022-09-01T05:09:19.268Z,43.42
2022-09-01T05:11:46.164Z,43.26
2022-09-01T05:14:13.653Z,42.94
2022-09-01T05:16:40.543Z,42.83
2022-09-01T05:19:08.624Z,42.60
2022-09-01T05:21:38.235Z,42.55
2022-09-01T05:24:05.183Z,42.70
2022-09-01T05:26:33.193Z,42.38
2022-09-01T05:29:04.395Z,42.39
2022-09-01T05:31:33.793Z,41.51
2022-09-01T05:34:01.237Z,41.27
2022-09-01T05:36:28.145Z,41.01
2022-09-01T05:38:55.027Z,40.31
2022-09-01T05:41:22.243Z,40.32
2022-09-01T05:43:49.789Z,40.58
2022-09-01T05:46:19.765Z,40.11
2022-09-01T05:48:48.500Z,39.77
2022-09-01T05:51:42.733Z,40.26
2022-09-01T05:54:05.642Z,40.33
2022-09-01T05:56:33.839Z,40.06
2022-09-01T06:01:50.456Z,41.10
2022-09-01T06:04:17.811Z,40.53
2022-09-01T06:07:06.960Z,40.15
2022-09-01T06:09:37.004Z,40.03
2022-09-01T06:12:03.980Z,40.41
2022-09-01T06:14:30.926Z,40.24
2022-09-01T06:16:57.833Z,39.91
2022-09-01T06:19:24.733Z,39.88
2022-09-01T06:21:51.618Z,40.30
2022-09-01T06:24:18.545Z,39.94
2022-09-01T06:26:45.423Z,39.88
2022-09-01T06:35:38.189Z,38.91
2022-09-01T06:38:06.353Z,38.62
2022-09-01T06:40:34.743Z,37.26
2022-09-01T06:43:02.633Z,36.69
2022-09-01T06:45:29.494Z,37.29
2022-09-01T06:47:59.646Z,36.13
2022-09-01T06:56:03.320Z,35.34
2022-09-01T06:58:30.317Z,35.30
2022-09-01T07:00:57.497Z,34.71
2022-09-01T07:03:25.993Z,34.05
2022-09-01T07:06:09.557Z,34.09
2022-09-01T07:14:15.878Z,34.28
2022-09-01T07:16:51.858Z,33.94
2022-09-01T07:19:20.184Z,34.06
2022-09-01T07:24:34.131Z,33.36
2022-09-01T07:27:07.761Z,33.58
2022-09-01T07:29:35.107Z,33.57
2022-09-01T07:34:49.174Z,33.25
2022-09-01T07:38:47.285Z,34.06
2022-09-01T07:43:12.341Z,33.99
2022-09-01T07:45:57.979Z,33.62
2022-09-01T07:54:03.503Z,32.78
2022-09-01T07:56:30.870Z,32.62
2022-09-01T07:58:58.717Z,31.35
2022-09-01T08:01:27.998Z,31.01
2022-09-01T08:04:00.941Z,31.57
2022-09-01T08:06:38.012Z,31.98
2022-09-01T08:09:06.041Z,31.34
2022-09-01T08:12:00.497Z,30.88
2022-09-01T08:14:20.554Z,30.82
2022-09-01T08:16:54.529Z,30.62
2022-09-01T08:19:22.366Z,30.36
2022-09-01T08:21:49.299Z,30.96
2022-09-01T08:24:16.230Z,30.05
2022-09-01T08:26:43.295Z,30.01
2022-09-01T08:29:10.316Z,30.12
2022-09-01T08:31:37.226Z,30.01
2022-09-01T08:34:04.358Z,28.31
2022-09-01T08:36:32.204Z,29.06
2022-09-01T08:38:59.146Z,28.96
2022-09-01T08:41:51.260Z,28.77
2022-09-01T08:44:46.495Z,27.56
2022-09-01T08:47:28.877Z,26.33
2022-09-01T08:50:00.517Z,27.18
2022-09-01T08:52:37.784Z,27.81
2022-09-01T08:55:22.641Z,26.87
2022-09-01T08:57:53.842Z,26.38
2022-09-01T09:00:29.193Z,27.13
2022-09-01T09:03:22.148Z,27.12
2022-09-01T09:06:10.286Z,27.71
2022-09-01T09:08:57.834Z,27.22
2022-09-01T09:11:24.617Z,28.23
2022-09-01T09:14:00.631Z,27.65
2022-09-01T09:16:53.093Z,27.70
2022-09-01T09:19:35.107Z,27.91
2022-09-01T09:22:05.331Z,27.68
2022-09-01T09:24:50.980Z,25.14
2022-09-01T09:27:33.279Z,24.62
2022-09-01T09:30:09.138Z,24.58
2022-09-01T09:35:46.641Z,24.62
2022-09-01T09:38:13.450Z,22.49
2022-09-01T09:44:13.353Z,24.29
2022-09-01T09:46:43.915Z,25.26
2022-09-01T09:49:34.983Z,25.04
2022-09-01T09:52:10.783Z,23.94
2022-09-01T09:54:57.905Z,22.71
2022-09-01T09:57:24.939Z,22.68
2022-09-01T10:00:07.221Z,21.77
2022-09-01T10:02:45.697Z,21.53
2022-09-01T10:05:25.034Z,22.44
2022-09-01T10:07:53.707Z,23.09
2022-09-01T10:10:57.691Z,22.66
2022-09-01T10:13:26.909Z,22.21
2022-09-01T10:15:57.201Z,21.26
2022-09-01T10:18:29.753Z,22.00
2022-09-01T10:21:03.319Z,20.22
2022-09-01T10:23:34.817Z,20.44
2022-09-01T10:26:27.392Z,22.08
2022-09-01T10:29:22.573Z,22.18
2022-09-01T10:31:56.021Z,21.76
2022-09-01T10:34:35.549Z,22.52
2022-09-01T10:37:02.428Z,21.82
2022-09-01T10:39:31.084Z,21.34
2022-09-01T10:42:00.994Z,18.97
2022-09-01T10:44:32.791Z,20.27
2022-09-01T10:47:06.310Z,20.25
2022-09-01T10:49:34.893Z,19.57
2022-09-01T10:52:07.427Z,19.68
2022-09-01T10:54:51.325Z,19.30
2022-09-01T10:57:26.780Z,19.02
2022-09-01T10:59:56.805Z,18.46
2022-09-01T11:02:27.123Z,18.37
2022-09-01T11:04:55.294Z,17.84
2022-09-01T11:07:33.530Z,18.72
2022-09-01T11:10:32.164Z,18.69
2022-09-01T11:13:31.063Z,18.86
2022-09-01T11:16:51.078Z,17.53
2022-09-01T11:19:32.249Z,16.02
2022-09-01T11:22:14.399Z,17.75
2022-09-01T11:24:42.361Z,17.75
2022-09-01T11:27:12.975Z,18.16
2022-09-01T11:30:00.768Z,18.51
2022-09-01T11:32:37.057Z,18.22
2022-09-01T11:35:13.583Z,18.22
2022-09-01T11:37:41.115Z,18.42
2022-09-01T11:40:08.586Z,18.14
2022-09-01T11:42:41.705Z,18.80
2022-09-01T11:45:21.506Z,18.88
2022-09-01T11:47:52.073Z,18.57
2022-09-01T11:50:27.192Z,18.57
2022-09-01T11:53:04.884Z,19.17
2022-09-01T11:55:40.198Z,18.06
2022-09-01T11:58:17.593Z,18.29
2022-09-01T12:00:45.579Z,18.74
2022-09-01T12:03:25.863Z,20.03
2022-09-01T12:06:03.243Z,20.89
2022-09-01T12:08:33.949Z,19.74
2022-09-01T12:11:05.765Z,20.24
2022-09-01T12:13:33.243Z,20.23
2022-09-01T12:16:17.889Z,20.42
2022-09-01T12:18:48.657Z,20.18
2022-09-01T12:21:37.327Z,19.33
2022-09-01T12:24:22.591Z,17.20
2022-09-01T12:26:54.421Z,16.93
2022-09-01T12:29:22.531Z,17.42
2022-09-01T12:31:51.248Z,17.28
2022-09-01T12:34:46.151Z,17.45
2022-09-01T12:37:15.809Z,16.84
2022-09-01T12:39:45.354Z,16.58
2022-09-01T12:42:21.261Z,17.28
2022-09-01T12:44:56.936Z,16.87
2022-09-01T12:47:35.925Z,17.03
2022-09-01T12:50:13.825Z,17.17
2022-09-01T12:52:46.905Z,17.35
2022-09-01T12:58:10.875Z,17.37
2022-09-01T13:00:56.288Z,17.46
2022-09-01T13:03:23.703Z,17.72
2022-09-01T13:05:53.066Z,17.73
2022-09-01T13:08:27.099Z,17.28
2022-09-01T13:11:14.331Z,16.07
2022-09-01T13:13:42.387Z,16.87
2022-09-01T13:16:10.029Z,17.03
2022-09-01T13:21:23.928Z,17.38
2022-09-01T13:23:50.840Z,16.97
2022-09-01T13:26:17.924Z,17.87
2022-09-01T13:28:46.052Z,18.54
2022-09-01T13:31:29.317Z,18.11
2022-09-01T13:34:21.834Z,18.51
2022-09-01T13:36:47.060Z,17.57
2022-09-01T13:39:17.543Z,17.28
2022-09-01T13:41:45.814Z,17.51
2022-09-01T13:44:12.722Z,16.81
2022-09-01T13:49:44.544Z,16.74
2022-09-01T13:52:13.663Z,17.30
2022-09-01T13:54:40.629Z,17.20
2022-09-01T13:57:07.790Z,17.56
2022-09-01T13:59:34.740Z,17.62
2022-09-01T14:02:01.809Z,17.45
2022-09-01T14:04:29.208Z,17.80
2022-09-01T14:06:56.509Z,18.11
2022-09-01T14:09:23.548Z,18.68
2022-09-01T14:11:53.366Z,19.05
2022-09-01T14:14:20.391Z,19.06
2022-09-01T14:16:47.408Z,19.35
2022-09-01T14:19:15.693Z,19.57
2022-09-01T14:21:43.044Z,19.61
2022-09-01T14:24:09.996Z,19.90
2022-09-01T14:26:36.930Z,19.90
2022-09-01T14:29:03.983Z,19.95
2022-09-01T14:31:30.788Z,19.86
2022-09-01T14:33:57.655Z,19.21
2022-09-01T14:36:27.099Z,19.12
2022-09-01T14:38:54.471Z,19.49
2022-09-01T14:41:23.210Z,19.42
2022-09-01T14:43:54.458Z,19.24
2022-09-01T14:46:21.629Z,19.56
2022-09-01T14:48:48.630Z,19.53
2022-09-01T14:52:10.191Z,19.26
2022-09-01T14:54:14.871Z,18.50
2022-09-01T14:56:41.928Z,18.21
2022-09-01T14:59:09.086Z,18.33
2022-09-01T15:01:36.068Z,19.21
2022-09-01T15:04:03.600Z,19.76
2022-09-01T15:06:30.477Z,20.26
2022-09-01T15:08:57.344Z,20.46
2022-09-01T15:11:24.300Z,20.27
2022-09-01T15:13:51.137Z,20.38
2022-09-01T15:16:21.924Z,20.49
2022-09-01T15:18:50.245Z,20.14
2022-09-01T15:21:24.610Z,20.62
2022-09-01T15:23:52.543Z,21.05
2022-09-01T15:26:20.027Z,21.73
2022-09-01T15:28:48.497Z,21.14
2022-09-01T15:31:17.430Z,21.01
2022-09-01T15:33:45.199Z,21.30
2022-09-01T15:36:21.414Z,21.43
2022-09-01T15:38:48.734Z,21.40
2022-09-01T15:41:22.284Z,21.13
2022-09-01T15:43:49.629Z,21.13
2022-09-01T15:46:16.707Z,20.84
2022-09-01T15:48:43.782Z,20.78
2022-09-01T15:51:22.905Z,20.83
2022-09-01T15:53:51.327Z,20.52
2022-09-01T15:56:19.109Z,20.93
2022-09-01T15:59:00.741Z,20.55
2022-09-01T16:01:30.315Z,20.85
2022-09-01T16:03:57.315Z,20.25
2022-09-01T16:06:24.250Z,20.43
2022-09-01T16:08:51.416Z,20.30
2022-09-01T16:11:18.350Z,20.60
2022-09-01T16:13:45.320Z,20.54
2022-09-01T16:16:41.210Z,20.69
2022-09-01T16:19:45.973Z,20.48
2022-09-01T16:22:21.959Z,20.53
2022-09-01T16:24:51.795Z,20.29
2022-09-01T16:27:21.801Z,20.24
2022-09-01T16:29:50.150Z,19.99
2022-09-01T16:32:17.408Z,19.70
2022-09-01T16:34:45.105Z,19.84
2022-09-01T16:37:20.753Z,19.64
2022-09-01T16:39:58.713Z,20.05
2022-09-01T16:42:45.743Z,20.41
2022-09-01T16:45:42.239Z,20.12
2022-09-01T16:48:33.501Z,20.28
2022-09-01T16:51:31.245Z,20.35
2022-09-01T16:54:13.665Z,20.85
2022-09-01T16:57:16.902Z,20.67
2022-09-01T16:59:55.555Z,20.86
2022-09-01T17:02:43.730Z,20.55
2022-09-01T17:05:19.713Z,20.65
2022-09-01T17:07:57.795Z,20.68
2022-09-01T17:10:43.279Z,21.27
2022-09-01T17:13:23.983Z,20.99
2022-09-01T17:16:00.862Z,21.62
2022-09-01T17:18:44.511Z,23.80
2022-09-01T17:21:22.660Z,24.93
2022-09-01T17:24:26.985Z,30.81
2022-09-01T17:26:58.171Z,35.32
2022-09-01T17:29:42.414Z,39.08
2022-09-01T17:32:35.487Z,40.44
2022-09-01T17:35:19.395Z,41.16
2022-09-01T17:38:13.755Z,42.48
2022-09-01T17:41:05.709Z,43.50
2022-09-01T17:43:50.461Z,44.19
2022-09-01T17:46:32.212Z,44.97
2022-09-01T17:49:08.059Z,46.16
2022-09-01T17:51:48.405Z,46.48
2022-09-01T17:54:54.256Z,47.09
2022-09-01T17:57:55.286Z,47.77
2022-09-01T18:00:30.207Z,48.49
2022-09-01T18:02:57.032Z,48.61
2022-09-01T18:05:25.045Z,49.27
2022-09-01T18:08:08.286Z,49.12
2022-09-01T18:10:40.240Z,49.35
2022-09-01T18:13:30.694Z,49.42
2022-09-01T18:16:12.826Z,49.75
2022-09-01T18:18:44.133Z,49.75
2022-09-01T18:21:16.691Z,50.14
2022-09-01T18:23:47.145Z,49.90
2022-09-01T18:26:19.735Z,50.27
2022-09-01T18:28:46.663Z,50.14
2022-09-01T18:32:04.115Z,50.29
2022-09-01T18:35:15.756Z,48.40
2022-09-01T18:38:21.032Z,48.11
2022-09-01T18:41:23.021Z,48.35
2022-09-01T18:44:00.595Z,48.13
2022-09-01T18:47:00.237Z,48.25
2022-09-01T18:49:59.091Z,48.41
2022-09-01T18:52:56.576Z,50.31
2022-09-01T18:56:14.211Z,51.04
2022-09-01T18:58:58.291Z,51.42
2022-09-01T19:01:34.547Z,51.02
2022-09-01T19:04:34.033Z,49.94
2022-09-01T19:07:10.766Z,51.73
2022-09-01T19:09:58.626Z,52.35
2022-09-01T19:12:36.182Z,52.65
2022-09-01T19:15:16.615Z,52.75
2022-09-01T19:17:55.477Z,52.97
2022-09-01T19:20:32.324Z,52.79
2022-09-01T19:23:12.382Z,53.07
2022-09-01T19:25:41.723Z,52.80
2022-09-01T19:28:21.220Z,52.83
2022-09-01T19:31:12.703Z,53.31
2022-09-01T19:33:43.862Z,52.82
2022-09-01T19:36:17.995Z,52.14
2022-09-01T19:38:44.948Z,52.32
2022-09-01T19:41:14.332Z,53.14
2022-09-01T19:43:41.382Z,53.48
2022-09-01T19:46:29.488Z,53.74
2022-09-01T19:49:13.760Z,53.78
2022-09-01T19:51:52.371Z,53.17
2022-09-01T19:54:41.159Z,53.83
2022-09-01T19:57:13.952Z,54.25
2022-09-01T20:00:00.316Z,53.96
2022-09-01T20:02:35.758Z,53.51
2022-09-01T20:05:13.268Z,53.75
2022-09-01T20:07:46.584Z,54.02
2022-09-01T20:10:56.397Z,52.92
2022-09-01T20:13:35.787Z,53.88
2022-09-01T20:16:21.192Z,53.75
2022-09-01T20:18:55.047Z,53.26
2022-09-01T20:21:21.873Z,53.91
2022-09-01T20:24:08.225Z,53.59
2022-09-01T20:26:42.326Z,54.65
2022-09-01T20:29:27.468Z,53.56
2022-09-01T20:31:58.736Z,54.46
2022-09-01T20:34:42.591Z,54.63
2022-09-01T20:37:16.671Z,54.08
2022-09-01T20:40:08.914Z,54.45
2022-09-01T20:42:44.858Z,53.72
2022-09-01T20:45:13.900Z,54.24
2022-09-01T20:47:40.785Z,53.75
2022-09-01T20:50:12.343Z,53.85
2022-09-01T20:52:54.134Z,54.33
2022-09-01T20:55:40.285Z,53.53
2022-09-01T20:58:39.007Z,53.97
2022-09-01T21:01:37.171Z,54.94
2022-09-01T21:04:39.402Z,54.55
2022-09-01T21:07:32.492Z,54.51
2022-09-01T21:10:13.672Z,54.01
2022-09-01T21:13:00.043Z,54.25
2022-09-01T21:15:45.426Z,53.59
2022-09-01T21:18:12.229Z,54.62
2022-09-01T21:20:48.089Z,53.86
2022-09-01T21:23:14.951Z,53.73
2022-09-01T21:25:43.549Z,54.09
2022-09-01T21:28:12.718Z,53.99
2022-09-01T21:30:39.595Z,54.43
2022-09-01T21:33:06.494Z,54.75
2022-09-01T21:35:33.465Z,54.31
2022-09-01T21:38:00.351Z,54.83
2022-09-01T21:40:27.463Z,54.46
2022-09-01T21:42:59.944Z,55.35
2022-09-01T21:45:27.390Z,54.53
2022-09-01T21:47:54.503Z,53.94
2022-09-01T21:50:24.400Z,54.50
2022-09-01T21:52:51.855Z,54.37
2022-09-01T21:55:22.903Z,54.91
2022-09-01T21:57:53.638Z,55.05
2022-09-01T22:00:23.900Z,54.17
2022-09-01T22:02:50.815Z,54.54
2022-09-01T22:05:17.988Z,54.80
2022-09-01T22:07:46.921Z,54.39
2022-09-01T22:10:18.038Z,54.62
2022-09-01T22:12:47.391Z,54.25
2022-09-01T22:15:17.641Z,54.46
2022-09-01T22:17:45.224Z,54.44
2022-09-01T22:20:15.102Z,54.57
2022-09-01T22:22:42.317Z,54.44
2022-09-01T22:25:13.270Z,54.73
2022-09-01T22:27:40.223Z,54.69
2022-09-01T22:30:09.190Z,54.32
2022-09-01T22:32:37.326Z,53.99
2022-09-01T22:35:06.559Z,54.12
2022-09-01T22:37:34.319Z,54.03
2022-09-01T22:40:01.347Z,54.05
2022-09-01T22:42:28.212Z,54.14
2022-09-01T22:44:55.174Z,54.24
2022-09-01T22:47:22.007Z,54.68
2022-09-01T22:49:49.163Z,54.21
2022-09-01T22:52:16.132Z,54.00
2022-09-01T22:54:43.561Z,54.16
2022-09-01T22:57:10.523Z,54.09
2022-09-01T22:59:37.356Z,54.29
2022-09-01T23:02:04.306Z,54.42
2022-09-01T23:04:31.250Z,54.47
2022-09-01T23:06:58.144Z,54.57
2022-09-01T23:09:25.015Z,54.39
2022-09-01T23:11:51.958Z,54.69
2022-09-01T23:14:19.500Z,54.29
2022-09-01T23:16:46.938Z,54.46
2022-09-01T23:19:19.543Z,54.37
2022-09-01T23:21:46.493Z,54.64
2022-09-01T23:24:14.156Z,54.49
2022-09-01T23:26:41.363Z,55.20
2022-09-01T23:29:08.745Z,55.18
2022-09-01T23:31:38.279Z,55.16
2022-09-01T23:34:07.451Z,55.36
2022-09-01T23:36:35.484Z,55.48
2022-09-01T23:39:02.588Z,55.45
2022-09-01T23:41:31.871Z,55.59
2022-09-01T23:44:00.971Z,55.86
2022-09-01T23:46:33.659Z,55.80
2022-09-01T23:49:02.424Z,56.30
2022-09-01T23:51:29.659Z,56.07
2022-09-01T23:53:56.780Z,56.31
2022-09-01T23:56:27.127Z,56.15
2022-09-01T23:58:54.098Z,56.19
